»·PEaware :: UAL481 KSNA-KLAS

UAL481 :: KSNA-KLAS

FLIGHT INFORMATION

Flight Status: Arrived
Operator:
United Airlines
More flights by this operator :: More flights under this callsign
Pilot: Chandler S. (807)
Aircraft: AIRBUS A320
(A320)
More flights by this aircraft type
Origin: KSNA John Wayne-Orange Co
United States
Destination: KLAS McCarran Intl
United States
More flights between these airports :: More routes between these airports
Route: +MUSEL8 DAG KEPEC6
File this flight plan on PilotEdge
Remarks:
Altitude:
(Current/Filed)
27,000ft
Speed:
(Current/Filed)
300kts
Departed: 03-Dec-17 09:39 PM
Arrived: 03-Dec-17 10:21 PM
Distance/Time
Traveled:
197nm/0:41
Distance/Time
To Go:
Arrived

Flight Plot

Page will automatically refresh every two minutes.

Flight plan parsing failed; only flown route is shown


Map Options




Map Legend


Flown Route
Filed Route
Departure Airport
Arrival Airport
Navaid (VOR, NDB)
Fix

Horizontal Profiles

Position Reports

Time Latitude Longitude Heading Altitude Ground
Speed
03-Dec-17 21:28 33.680117 -117.861797 90 65ft 0kts
03-Dec-17 21:29 33.680117 -117.861797 90 65ft 0kts
03-Dec-17 21:30 33.680117 -117.861797 90 65ft 0kts
03-Dec-17 21:31 33.680117 -117.861797 90 65ft 0kts
03-Dec-17 21:32 33.680117 -117.861797 90 65ft 0kts
03-Dec-17 21:33 33.680117 -117.861797 90 65ft 0kts
03-Dec-17 21:34 33.680117 -117.861797 90 65ft 0kts
03-Dec-17 21:35 33.680117 -117.861797 90 65ft 0kts
03-Dec-17 21:36 33.680117 -117.861797 90 65ft 0kts
03-Dec-17 21:37 33.680121 -117.862380 84 65ft 2kts
03-Dec-17 21:38 33.679844 -117.862828 27 65ft 0kts
03-Dec-17 21:39 33.679843 -117.862829 27 65ft 0kts
03-Dec-17 21:40 33.679843 -117.862829 27 65ft 0kts
03-Dec-17 21:41 33.680317 -117.862703 317 65ft 9kts
03-Dec-17 21:42 33.680663 -117.863168 308 65ft 0kts
03-Dec-17 21:43 33.681289 -117.865233 226 65ft 14kts
03-Dec-17 21:44 33.650570 -117.884926 207 1086ft 224kts
03-Dec-17 21:45 33.582624 -117.903394 187 3961ft 257kts
03-Dec-17 21:46 33.546213 -117.959534 293 7308ft 246kts
03-Dec-17 21:47 33.604440 -118.000659 342 10930ft 273kts
03-Dec-17 21:48 33.679069 -118.020403 342 15018ft 280kts
03-Dec-17 21:49 33.754410 -118.034314 343 18984ft 276kts
03-Dec-17 21:50 33.826576 -117.988561 33 22822ft 326kts
03-Dec-17 21:51 33.893766 -117.909165 32 24978ft 363kts
03-Dec-17 21:52 33.968189 -117.822829 30 27072ft 387kts
03-Dec-17 21:53 34.054497 -117.734398 25 27124ft 453kts
03-Dec-17 21:54 34.161646 -117.639589 27 27104ft 509kts
03-Dec-17 21:55 34.277165 -117.534554 30 27112ft 533kts
03-Dec-17 21:56 34.376049 -117.402100 44 27131ft 533kts
03-Dec-17 21:57 34.470032 -117.264702 42 27135ft 543kts
03-Dec-17 21:58 34.568947 -117.123998 42 27148ft 554kts
03-Dec-17 21:59 34.666787 -116.984605 41 27117ft 528kts
03-Dec-17 22:00 34.763379 -116.851594 41 27095ft 522kts
03-Dec-17 22:01 34.858914 -116.720010 41 27097ft 519kts
03-Dec-17 22:02 34.953759 -116.588582 41 27096ft 517kts
03-Dec-17 22:03 35.047777 -116.456620 41 27090ft 517kts
03-Dec-17 22:04 35.141701 -116.324999 39 27086ft 515kts
03-Dec-17 22:05 35.237567 -116.198417 39 27088ft 513kts
03-Dec-17 22:06 35.330084 -116.077947 36 25522ft 451kts
03-Dec-17 22:07 35.414493 -115.975719 36 22382ft 409kts
03-Dec-17 22:08 35.493521 -115.883558 36 19138ft 380kts
03-Dec-17 22:09 35.569208 -115.799920 36 15805ft 356kts
03-Dec-17 22:10 35.643420 -115.718063 39 13569ft 353kts
03-Dec-17 22:11 35.710517 -115.640538 40 13111ft 315kts
03-Dec-17 22:12 35.774860 -115.567584 27 13114ft 317kts
03-Dec-17 22:13 35.853952 -115.556554 352 13111ft 276kts
03-Dec-17 22:14 35.931250 -115.562533 352 13102ft 285kts
03-Dec-17 22:15 36.007951 -115.542352 43 12549ft 326kts
03-Dec-17 22:16 36.028325 -115.427925 86 9496ft 347kts
03-Dec-17 22:17 36.026710 -115.315902 94 11250ft 300kts
03-Dec-17 22:18 36.021879 -115.213176 90 9487ft 304kts
03-Dec-17 22:19 36.017279 -115.110463 91 8058ft 292kts
03-Dec-17 22:20 36.012686 -115.019144 89 8045ft 238kts
03-Dec-17 22:21 36.025929 -114.947851 20 7175ft 219kts
03-Dec-17 22:22 36.072048 -114.979101 275 4766ft 220kts
03-Dec-17 22:23 36.073328 -115.042841 277 3436ft 168kts
03-Dec-17 22:24 36.073309 -115.095256 281 2777ft 127kts
03-Dec-17 22:25 36.073235 -115.136290 281 2150ft 114kts
03-Dec-17 22:26 36.074208 -115.144207 285 2150ft 0kts

Navigation Log

Ident Type
Flight plan parsing failed, navigation log unavailable